createdAt,value
2023-02-17T00:01:50.630Z,208.63
2023-02-17T00:03:53.126Z,206.82
2023-02-17T00:05:54.708Z,236.40
2023-02-17T00:07:56.238Z,192.50
2023-02-17T00:09:58.911Z,183.82
2023-02-17T00:12:00.442Z,199.65
2023-02-17T00:14:01.953Z,211.80
2023-02-17T00:16:32.561Z,206.45
2023-02-17T00:18:34.114Z,203.50
2023-02-17T00:20:35.639Z,191.27
2023-02-17T00:22:37.152Z,194.07
2023-02-17T00:24:39.722Z,182.98
2023-02-17T00:26:41.257Z,192.10
2023-02-17T00:28:43.822Z,223.73
2023-02-17T00:30:45.344Z,251.30
2023-02-17T00:32:46.898Z,204.52
2023-02-17T00:34:48.427Z,195.02
2023-02-17T00:36:50.006Z,180.63
2023-02-17T00:38:53.633Z,175.63
2023-02-17T00:40:55.190Z,185.20
2023-02-17T00:42:56.700Z,175.02
2023-02-17T00:44:58.199Z,124.82
2023-02-17T00:46:59.735Z,117.53
2023-02-17T00:49:01.208Z,115.85
2023-02-17T00:51:02.999Z,125.70
2023-02-17T00:53:04.561Z,153.43
2023-02-17T00:55:06.400Z,153.20
2023-02-17T00:57:07.899Z,136.25
2023-02-17T00:59:10.832Z,137.20
2023-02-17T01:01:12.374Z,134.98
2023-02-17T01:03:13.934Z,134.48
2023-02-17T01:05:15.487Z,127.47
2023-02-17T01:07:17.068Z,126.25
2023-02-17T01:09:18.627Z,113.53
2023-02-17T01:11:28.622Z,119.60
2023-02-17T01:13:30.105Z,119.60
2023-02-17T01:15:32.907Z,133.07
2023-02-17T01:17:34.430Z,130.40
2023-02-17T01:19:35.947Z,132.50
2023-02-17T01:21:37.522Z,127.60
2023-02-17T01:23:39.042Z,126.45
2023-02-17T01:25:42.537Z,123.93
2023-02-17T01:27:44.298Z,126.32
2023-02-17T01:29:46.697Z,138.18
2023-02-17T01:31:48.255Z,129.48
2023-02-17T01:33:50.384Z,124.22
2023-02-17T01:35:51.907Z,126.43
2023-02-17T01:37:53.457Z,114.55
2023-02-17T01:39:54.953Z,110.28
2023-02-17T01:41:56.966Z,106.88
2023-02-17T01:44:07.475Z,120.43
2023-02-17T01:46:09.594Z,118.25
2023-02-17T01:48:14.624Z,115.03
2023-02-17T01:50:19.314Z,103.88
2023-02-17T01:52:24.754Z,98.18
2023-02-17T01:54:36.018Z,94.40
2023-02-17T01:56:41.108Z,95.68
2023-02-17T01:58:51.862Z,89.53
2023-02-17T02:00:56.513Z,90.30
2023-02-17T02:03:00.891Z,91.68
2023-02-17T02:05:03.729Z,84.85
2023-02-17T02:07:10.375Z,86.95
2023-02-17T02:09:47.334Z,97.63
2023-02-17T02:11:50.945Z,82.95
2023-02-17T02:13:52.532Z,92.53
2023-02-17T02:16:18.857Z,90.45
2023-02-17T02:18:20.418Z,87.32
2023-02-17T02:21:02.573Z,82.25
2023-02-17T02:23:04.043Z,81.60
2023-02-17T02:25:19.960Z,82.70
2023-02-17T02:27:49.025Z,87.78
2023-02-17T02:30:05.531Z,81.53
2023-02-17T02:32:43.291Z,92.38
2023-02-17T02:34:53.438Z,89.00
2023-02-17T02:37:13.045Z,79.93
2023-02-17T02:41:23.842Z,88.38
2023-02-17T02:43:25.800Z,88.07
2023-02-17T02:45:27.333Z,85.85
2023-02-17T02:47:51.675Z,89.45
2023-02-17T02:49:53.391Z,94.95
2023-02-17T02:52:24.658Z,88.68
2023-02-17T02:54:36.990Z,79.63
2023-02-17T02:57:10.009Z,89.82
2023-02-17T02:59:57.448Z,92.13
2023-02-17T03:02:33.734Z,87.80
2023-02-17T03:04:45.150Z,81.25
2023-02-17T03:06:56.060Z,90.57
2023-02-17T03:09:05.072Z,88.93
2023-02-17T03:11:07.020Z,79.72
2023-02-17T03:13:08.588Z,83.05
2023-02-17T03:15:19.640Z,87.22
2023-02-17T03:17:21.230Z,85.50
2023-02-17T03:19:24.727Z,79.18
2023-02-17T03:21:33.547Z,82.45
2023-02-17T03:23:35.016Z,62.77
2023-02-17T03:25:36.526Z,80.35
2023-02-17T03:27:38.007Z,80.88
2023-02-17T03:29:40.025Z,76.03
2023-02-17T03:31:41.901Z,76.90
2023-02-17T03:33:43.543Z,74.22
2023-02-17T03:35:45.515Z,73.57
2023-02-17T03:37:47.037Z,76.72
2023-02-17T03:39:48.653Z,75.68
2023-02-17T03:41:51.700Z,75.97
2023-02-17T03:43:53.358Z,79.70
2023-02-17T03:45:54.938Z,77.22
2023-02-17T03:47:56.492Z,74.18
2023-02-17T03:49:57.996Z,78.18
2023-02-17T03:51:59.582Z,73.78
2023-02-17T03:54:01.236Z,79.68
2023-02-17T03:56:02.818Z,76.93
2023-02-17T03:58:04.787Z,70.65
2023-02-17T04:00:07.886Z,74.50
2023-02-17T04:02:09.467Z,71.70
2023-02-17T04:04:11.063Z,77.05
2023-02-17T04:06:12.826Z,95.43
2023-02-17T04:08:14.364Z,79.28
2023-02-17T04:10:16.253Z,75.95
2023-02-17T04:12:17.751Z,78.20
2023-02-17T04:14:19.291Z,72.45
2023-02-17T04:16:20.999Z,69.80
2023-02-17T04:18:22.847Z,73.85
2023-02-17T04:20:24.642Z,66.55
2023-02-17T04:22:26.237Z,64.82
2023-02-17T04:24:27.766Z,79.95
2023-02-17T04:26:29.845Z,69.78
2023-02-17T04:28:31.411Z,70.80
2023-02-17T04:30:33.430Z,72.28
2023-02-17T04:32:35.026Z,63.80
2023-02-17T04:34:36.655Z,69.32
2023-02-17T04:36:38.184Z,72.82
2023-02-17T04:38:40.043Z,70.88
2023-02-17T04:40:42.204Z,70.90
2023-02-17T04:42:44.262Z,69.53
2023-02-17T04:44:45.815Z,79.03
2023-02-17T04:46:47.369Z,70.65
2023-02-17T04:48:48.861Z,64.18
2023-02-17T04:50:51.128Z,70.63
2023-02-17T04:52:52.672Z,67.97
2023-02-17T04:54:54.250Z,67.60
2023-02-17T04:56:55.788Z,67.38
2023-02-17T04:58:57.262Z,60.33
2023-02-17T05:01:00.815Z,61.90
2023-02-17T05:03:02.473Z,64.70
2023-02-17T05:05:04.120Z,64.97
2023-02-17T05:07:05.644Z,69.82
2023-02-17T05:09:07.183Z,67.20
2023-02-17T05:11:08.665Z,73.47
2023-02-17T05:13:10.329Z,65.65
2023-02-17T05:15:12.657Z,71.90
2023-02-17T05:17:14.194Z,74.82
2023-02-17T05:19:15.724Z,71.05
2023-02-17T05:21:17.262Z,68.13
2023-02-17T05:23:18.849Z,69.60
2023-02-17T05:25:20.408Z,69.93
2023-02-17T05:27:22.086Z,76.93
2023-02-17T05:29:24.297Z,66.07
2023-02-17T05:31:25.934Z,69.88
2023-02-17T05:33:27.646Z,83.55
2023-02-17T05:35:29.143Z,77.10
2023-02-17T05:37:30.658Z,84.97
2023-02-17T05:39:32.256Z,89.95
2023-02-17T05:41:33.773Z,76.18
2023-02-17T05:43:35.281Z,82.93
2023-02-17T05:45:37.096Z,77.07
2023-02-17T05:47:38.656Z,77.80
2023-02-17T05:49:40.243Z,82.43
2023-02-17T05:51:41.729Z,86.53
2023-02-17T05:53:44.290Z,85.93
2023-02-17T05:55:47.020Z,81.18
2023-02-17T05:57:50.098Z,84.78
2023-02-17T05:59:51.582Z,85.68
2023-02-17T06:01:53.208Z,81.75
2023-02-17T06:03:54.783Z,84.80
2023-02-17T06:05:56.289Z,73.10
2023-02-17T06:07:57.853Z,74.68
2023-02-17T06:09:59.349Z,79.65
2023-02-17T06:12:01.001Z,83.38
2023-02-17T06:14:02.578Z,75.97
2023-02-17T06:16:04.505Z,69.70
2023-02-17T06:18:06.188Z,66.05
2023-02-17T06:20:09.057Z,60.58
2023-02-17T06:22:10.579Z,59.20
2023-02-17T06:24:12.216Z,65.68
2023-02-17T06:26:14.665Z,57.85
2023-02-17T06:28:16.508Z,67.32
2023-02-17T06:30:18.133Z,63.92
2023-02-17T06:32:19.874Z,59.10
2023-02-17T06:34:21.473Z,59.35
2023-02-17T06:36:22.987Z,59.83
2023-02-17T06:38:24.566Z,69.78
2023-02-17T06:40:28.549Z,58.13
2023-02-17T06:42:30.325Z,58.22
2023-02-17T06:44:31.837Z,53.05
2023-02-17T06:46:33.369Z,55.50
2023-02-17T06:48:35.133Z,56.63
2023-02-17T06:50:36.770Z,55.85
2023-02-17T06:52:38.463Z,61.25
2023-02-17T06:54:39.971Z,68.13
2023-02-17T06:56:41.515Z,65.25
2023-02-17T06:58:43.102Z,77.45
2023-02-17T07:00:44.630Z,63.85
2023-02-17T07:02:46.345Z,58.53
2023-02-17T07:04:48.129Z,57.22
2023-02-17T07:06:49.672Z,49.30
2023-02-17T07:08:51.920Z,56.53
2023-02-17T07:10:54.083Z,57.85
2023-02-17T07:12:55.622Z,58.92
2023-02-17T07:14:57.290Z,63.67
2023-02-17T07:16:58.978Z,65.57
2023-02-17T07:19:00.495Z,56.75
2023-02-17T07:21:02.051Z,61.38
2023-02-17T07:23:03.558Z,53.33
2023-02-17T07:25:06.070Z,53.83
2023-02-17T07:27:10.644Z,49.78
2023-02-17T07:29:12.444Z,56.22
2023-02-17T07:31:16.433Z,56.42
2023-02-17T07:33:18.038Z,58.20
2023-02-17T07:35:19.551Z,63.35
2023-02-17T07:37:21.925Z,63.10
2023-02-17T07:39:23.442Z,60.10
2023-02-17T07:41:28.639Z,56.80
2023-02-17T07:43:30.155Z,58.00
2023-02-17T07:45:31.774Z,60.03
2023-02-17T07:47:33.530Z,66.55
2023-02-17T07:49:35.083Z,60.25
2023-02-17T07:51:36.646Z,53.97
2023-02-17T07:53:38.969Z,60.78
2023-02-17T07:55:40.539Z,62.63
2023-02-17T07:57:42.032Z,60.75
2023-02-17T07:59:43.674Z,57.30
2023-02-17T08:01:45.273Z,57.30
2023-02-17T08:03:48.624Z,87.88
2023-02-17T08:05:51.571Z,67.35
2023-02-17T08:08:13.128Z,59.47
2023-02-17T08:10:33.288Z,53.65
2023-02-17T08:12:53.242Z,61.53
2023-02-17T08:14:57.930Z,62.05
2023-02-17T08:16:59.810Z,58.45
2023-02-17T08:19:01.456Z,60.85
2023-02-17T08:21:03.131Z,54.63
2023-02-17T08:23:04.786Z,55.88
2023-02-17T08:25:06.556Z,57.78
2023-02-17T08:27:08.089Z,57.35
2023-02-17T08:29:09.597Z,60.72
2023-02-17T08:31:26.412Z,57.13
2023-02-17T08:33:28.050Z,59.78
2023-02-17T08:35:29.668Z,55.67
2023-02-17T08:37:32.212Z,64.45
2023-02-17T08:39:34.814Z,61.17
2023-02-17T08:41:38.374Z,50.05
2023-02-17T08:43:41.554Z,56.53
2023-02-17T08:45:43.114Z,57.35
2023-02-17T08:47:44.696Z,54.55
2023-02-17T08:49:46.234Z,56.33
2023-02-17T08:51:48.261Z,54.42
2023-02-17T08:53:51.293Z,51.03
2023-02-17T08:55:52.852Z,52.72
2023-02-17T08:57:54.379Z,54.38
2023-02-17T08:59:56.183Z,55.97
2023-02-17T09:01:58.387Z,67.68
2023-02-17T09:04:01.441Z,84.90
2023-02-17T09:06:03.467Z,101.45
2023-02-17T09:08:05.541Z,73.32
2023-02-17T09:10:08.778Z,81.53
2023-02-17T09:12:10.391Z,75.75
2023-02-17T09:14:12.037Z,82.93
2023-02-17T09:16:13.930Z,84.15
2023-02-17T09:18:16.668Z,66.68
2023-02-17T09:20:24.778Z,60.25
2023-02-17T09:22:31.916Z,58.75
2023-02-17T09:24:35.058Z,73.57
2023-02-17T09:26:36.781Z,65.78
2023-02-17T09:28:39.247Z,76.50
2023-02-17T09:30:41.381Z,69.60
2023-02-17T09:32:44.075Z,57.25
2023-02-17T09:34:51.614Z,64.18
2023-02-17T09:36:53.212Z,53.70
2023-02-17T09:38:55.525Z,51.45
2023-02-17T09:41:05.429Z,55.35
2023-02-17T09:43:14.129Z,52.42
2023-02-17T09:45:27.451Z,47.15
2023-02-17T09:47:41.266Z,56.60
2023-02-17T09:49:47.532Z,54.33
2023-02-17T09:51:59.869Z,57.85
2023-02-17T09:54:54.886Z,52.40
2023-02-17T09:56:57.837Z,50.70
2023-02-17T09:59:04.518Z,52.53
2023-02-17T10:01:18.763Z,58.05
2023-02-17T10:03:44.705Z,53.75
2023-02-17T10:06:11.904Z,57.22
2023-02-17T10:08:19.067Z,54.67
2023-02-17T10:10:35.836Z,58.72
2023-02-17T10:12:43.515Z,56.70
2023-02-17T10:14:51.803Z,54.08
2023-02-17T10:17:55.111Z,54.28
2023-02-17T10:20:05.291Z,50.00
2023-02-17T10:22:17.830Z,51.20
2023-02-17T10:24:19.384Z,50.45
2023-02-17T10:26:30.006Z,49.25
2023-02-17T10:28:39.753Z,52.58
2023-02-17T10:30:57.181Z,53.13
2023-02-17T10:33:02.177Z,49.03
2023-02-17T10:35:17.962Z,47.83
2023-02-17T10:37:33.482Z,52.03
2023-02-17T10:39:48.016Z,50.97
2023-02-17T10:41:51.893Z,46.65
2023-02-17T10:43:54.906Z,48.80
2023-02-17T10:45:57.664Z,52.03
2023-02-17T10:48:11.893Z,49.90
2023-02-17T10:50:22.465Z,45.03
2023-02-17T10:52:32.724Z,73.90
2023-02-17T10:54:46.732Z,46.08
2023-02-17T10:56:52.313Z,47.40
2023-02-17T10:59:20.703Z,48.72
2023-02-17T11:01:23.368Z,45.80
2023-02-17T11:03:29.596Z,41.20
2023-02-17T11:05:33.722Z,45.15
2023-02-17T11:07:43.990Z,45.65
2023-02-17T11:09:52.177Z,71.50
2023-02-17T11:12:00.221Z,49.65
2023-02-17T11:14:04.813Z,248.60
2023-02-17T11:16:07.241Z,210.38
2023-02-17T11:18:12.479Z,88.80
2023-02-17T11:20:14.185Z,45.67
2023-02-17T11:22:31.844Z,41.67
2023-02-17T11:24:35.544Z,48.90
2023-02-17T11:26:37.175Z,71.63
2023-02-17T11:28:38.759Z,150.82
2023-02-17T11:30:49.463Z,157.82
2023-02-17T11:32:51.911Z,230.02
2023-02-17T11:34:58.313Z,60.55
2023-02-17T11:37:12.099Z,56.55
2023-02-17T11:39:21.213Z,374.02
2023-02-17T11:41:23.608Z,64.75
2023-02-17T11:43:25.607Z,52.47
2023-02-17T11:45:49.226Z,117.85
2023-02-17T11:47:53.720Z,274.35
2023-02-17T11:50:09.799Z,73.05
2023-02-17T11:52:17.237Z,89.70
2023-02-17T11:54:33.699Z,99.82
2023-02-17T11:56:38.479Z,39.95
2023-02-17T11:59:08.327Z,32.00
2023-02-17T12:03:38.632Z,40.42
2023-02-17T12:05:48.930Z,31.73
2023-02-17T12:08:01.034Z,32.75
2023-02-17T12:10:16.457Z,33.05
2023-02-17T12:12:39.922Z,34.70
2023-02-17T12:15:09.203Z,30.30
2023-02-17T12:17:33.505Z,43.55
2023-02-17T12:19:37.989Z,52.70
2023-02-17T12:21:58.143Z,131.90
2023-02-17T12:24:23.826Z,41.45
2023-02-17T12:26:40.829Z,43.38
2023-02-17T12:29:16.399Z,36.50
2023-02-17T12:31:20.830Z,34.33
2023-02-17T12:33:52.768Z,38.00
2023-02-17T12:36:07.988Z,35.22
2023-02-17T12:38:18.628Z,33.88
2023-02-17T12:40:42.856Z,33.15
2023-02-17T12:42:53.948Z,32.00
2023-02-17T12:45:07.371Z,37.90
2023-02-17T12:47:28.922Z,42.28
2023-02-17T12:49:43.870Z,71.93
2023-02-17T12:51:56.008Z,47.50
2023-02-17T12:54:06.477Z,58.45
2023-02-17T12:56:39.489Z,57.58
2023-02-17T12:58:42.688Z,42.47
2023-02-17T13:00:52.307Z,61.95
2023-02-17T13:02:58.814Z,68.28
2023-02-17T13:05:04.819Z,61.15
2023-02-17T13:07:40.628Z,55.50
2023-02-17T13:09:45.569Z,54.15
2023-02-17T13:11:47.091Z,62.03
2023-02-17T13:13:48.811Z,75.80
2023-02-17T13:16:03.676Z,72.47
2023-02-17T13:18:29.129Z,52.45
2023-02-17T13:20:52.583Z,49.33
2023-02-17T13:23:06.673Z,52.35
2023-02-17T13:25:13.091Z,59.97
2023-02-17T13:27:27.894Z,46.92
2023-02-17T13:29:35.878Z,57.25
2023-02-17T13:31:50.348Z,57.97
2023-02-17T13:33:55.201Z,48.97
2023-02-17T13:35:56.843Z,43.60
2023-02-17T13:37:58.506Z,71.53
2023-02-17T13:40:01.054Z,57.00
2023-02-17T13:42:03.252Z,34.88
2023-02-17T13:44:29.593Z,30.33
2023-02-17T13:46:31.811Z,35.55
2023-02-17T13:48:35.466Z,67.28
2023-02-17T13:50:43.336Z,43.75
2023-02-17T13:52:44.856Z,37.45
2023-02-17T13:55:03.958Z,39.08
2023-02-17T13:57:05.626Z,41.58
2023-02-17T13:59:17.607Z,42.53
2023-02-17T14:01:22.525Z,37.03
2023-02-17T14:03:27.221Z,44.38
2023-02-17T14:05:40.394Z,41.50
2023-02-17T14:07:41.981Z,43.08
2023-02-17T14:09:51.860Z,43.63
2023-02-17T14:13:57.469Z,47.22
2023-02-17T14:16:00.247Z,47.67
2023-02-17T14:18:13.606Z,45.83
2023-02-17T14:20:35.457Z,50.17
2023-02-17T14:22:37.965Z,49.78
2023-02-17T14:24:39.689Z,52.45
2023-02-17T14:26:49.129Z,56.90
2023-02-17T14:28:55.993Z,52.70
2023-02-17T14:31:09.850Z,50.10
2023-02-17T14:33:17.385Z,48.72
2023-02-17T14:35:23.717Z,45.70
2023-02-17T14:37:25.452Z,46.58
2023-02-17T14:39:27.221Z,48.33
2023-02-17T14:41:29.209Z,53.70
2023-02-17T14:43:30.943Z,54.78
2023-02-17T14:45:32.505Z,87.22
2023-02-17T14:47:34.000Z,54.63
2023-02-17T14:49:36.125Z,57.78
2023-02-17T14:51:38.055Z,62.33
2023-02-17T14:53:40.577Z,65.68
2023-02-17T14:55:50.753Z,50.20
2023-02-17T14:57:52.341Z,77.55
2023-02-17T14:59:57.870Z,150.57
2023-02-17T15:02:02.481Z,142.75
2023-02-17T15:04:04.179Z,86.00
2023-02-17T15:06:18.714Z,94.40
2023-02-17T15:08:24.332Z,65.30
2023-02-17T15:10:27.772Z,76.88
2023-02-17T15:12:29.533Z,64.90
2023-02-17T15:14:31.049Z,74.93
2023-02-17T15:16:35.861Z,125.25
2023-02-17T15:18:37.421Z,102.13
2023-02-17T15:20:42.158Z,98.32
2023-02-17T15:22:44.464Z,106.57
2023-02-17T15:24:46.024Z,105.55
2023-02-17T15:26:48.213Z,89.13
2023-02-17T15:28:50.175Z,88.03
2023-02-17T15:30:55.123Z,129.45
2023-02-17T15:32:56.731Z,143.98
2023-02-17T15:34:59.775Z,178.38
2023-02-17T15:37:01.584Z,122.68
2023-02-17T15:39:03.263Z,85.97
2023-02-17T15:41:11.174Z,73.68
2023-02-17T15:43:17.200Z,90.70
2023-02-17T15:45:20.302Z,69.18
2023-02-17T15:47:22.086Z,90.53
2023-02-17T15:49:23.642Z,103.90
2023-02-17T15:51:25.259Z,92.75
2023-02-17T15:53:29.129Z,109.35
2023-02-17T15:55:30.725Z,124.55
2023-02-17T15:57:32.555Z,102.40
2023-02-17T15:59:34.188Z,86.15
2023-02-17T16:01:36.032Z,98.30
2023-02-17T16:03:37.935Z,110.35
2023-02-17T16:05:40.302Z,81.22
2023-02-17T16:07:41.861Z,91.40
2023-02-17T16:09:43.385Z,79.65
2023-02-17T16:11:51.089Z,95.43
2023-02-17T16:13:52.675Z,107.90
2023-02-17T16:15:57.630Z,82.88
2023-02-17T16:17:59.939Z,111.72
2023-02-17T16:20:01.531Z,90.85
2023-02-17T16:22:03.065Z,101.88
2023-02-17T16:24:05.215Z,103.40
2023-02-17T16:26:22.330Z,89.80
2023-02-17T16:28:23.821Z,75.72
2023-02-17T16:30:30.678Z,71.90
2023-02-17T16:32:34.750Z,72.15
2023-02-17T16:34:37.104Z,73.22
2023-02-17T16:36:39.213Z,85.03
2023-02-17T16:38:40.874Z,79.60
2023-02-17T16:40:49.271Z,91.60
2023-02-17T16:42:51.199Z,92.15
2023-02-17T16:44:52.713Z,94.60
2023-02-17T16:46:55.572Z,120.25
2023-02-17T16:48:58.588Z,160.35
2023-02-17T16:51:00.303Z,64.07
2023-02-17T16:53:04.648Z,129.40
2023-02-17T16:55:06.495Z,55.63
2023-02-17T16:57:19.017Z,109.65
2023-02-17T16:59:22.252Z,65.57
2023-02-17T17:01:24.377Z,63.30
2023-02-17T17:03:26.053Z,51.63
2023-02-17T17:05:28.926Z,55.75
2023-02-17T17:07:31.394Z,57.17
2023-02-17T17:09:32.891Z,54.30
2023-02-17T17:11:34.485Z,48.30
2023-02-17T17:13:36.025Z,46.45
2023-02-17T17:15:40.062Z,52.40
2023-02-17T17:17:45.727Z,58.85
2023-02-17T17:19:47.190Z,43.75
2023-02-17T17:21:49.492Z,43.80
2023-02-17T17:23:51.227Z,51.88
2023-02-17T17:25:52.790Z,82.40
2023-02-17T17:27:54.838Z,53.92
2023-02-17T17:29:56.398Z,48.92
2023-02-17T17:31:58.066Z,48.10
2023-02-17T17:33:59.835Z,51.65
2023-02-17T17:36:01.407Z,57.83
2023-02-17T17:38:03.004Z,63.28
2023-02-17T17:40:05.301Z,53.17
2023-02-17T17:42:06.858Z,56.50
2023-02-17T17:44:10.377Z,51.88
2023-02-17T17:46:28.596Z,46.05
2023-02-17T17:48:30.113Z,47.67
2023-02-17T17:50:31.707Z,46.47
2023-02-17T17:52:33.253Z,38.53
2023-02-17T17:54:34.847Z,47.90
2023-02-17T17:56:42.959Z,48.72
2023-02-17T17:58:45.298Z,51.10
2023-02-17T18:00:47.404Z,49.88
2023-02-17T18:02:48.960Z,54.38
2023-02-17T18:04:50.569Z,284.60
2023-02-17T18:06:55.469Z,46.10
2023-02-17T18:09:02.415Z,48.58
2023-02-17T18:11:04.058Z,40.75
2023-02-17T18:13:08.561Z,54.47
2023-02-17T18:15:10.896Z,45.45
2023-02-17T18:17:14.582Z,40.97
2023-02-17T18:19:19.516Z,47.90
2023-02-17T18:21:21.059Z,45.47
2023-02-17T18:23:22.873Z,37.20
2023-02-17T18:25:25.253Z,41.38
2023-02-17T18:27:26.969Z,42.45
2023-02-17T18:29:28.517Z,46.50
2023-02-17T18:31:30.156Z,75.72
2023-02-17T18:33:32.834Z,109.60
2023-02-17T18:35:38.692Z,66.05
2023-02-17T18:37:41.162Z,50.35
2023-02-17T18:39:42.766Z,76.65
2023-02-17T18:41:44.293Z,66.60
2023-02-17T18:43:46.146Z,66.43
2023-02-17T18:45:48.809Z,62.78
2023-02-17T18:47:50.334Z,62.88
2023-02-17T18:49:52.296Z,45.70
2023-02-17T18:51:54.569Z,49.58
2023-02-17T18:53:57.830Z,57.47
2023-02-17T18:55:59.379Z,45.05
2023-02-17T18:58:00.909Z,46.38
2023-02-17T19:00:04.736Z,50.60
2023-02-17T19:02:08.797Z,43.33
2023-02-17T19:04:11.870Z,41.35
2023-02-17T19:06:17.195Z,32.33
2023-02-17T19:08:18.771Z,39.45
2023-02-17T19:10:20.438Z,38.80
2023-02-17T19:12:21.973Z,42.10
2023-02-17T19:14:23.533Z,44.03
2023-02-17T19:16:28.222Z,35.28
2023-02-17T19:18:29.705Z,38.45
2023-02-17T19:20:31.736Z,36.35
2023-02-17T19:22:37.378Z,38.25
2023-02-17T19:24:40.657Z,40.30
2023-02-17T19:26:42.834Z,33.75
2023-02-17T19:28:45.662Z,33.50
2023-02-17T19:30:47.351Z,37.75
2023-02-17T19:32:48.893Z,37.92
2023-02-17T19:34:50.661Z,33.13
2023-02-17T19:36:52.270Z,31.10
2023-02-17T19:38:56.305Z,36.05
2023-02-17T19:40:57.838Z,33.03
2023-02-17T19:43:01.395Z,41.10
2023-02-17T19:45:03.235Z,40.58
2023-02-17T19:47:04.794Z,39.55
2023-02-17T19:49:06.910Z,36.90
2023-02-17T19:51:09.489Z,110.43
2023-02-17T19:53:11.546Z,117.30
2023-02-17T19:55:13.331Z,446.75
2023-02-17T19:57:17.368Z,685.42
2023-02-17T19:59:19.304Z,509.48
2023-02-17T20:01:27.117Z,85.25
2023-02-17T20:03:28.638Z,69.32
2023-02-17T20:05:31.474Z,82.78
2023-02-17T20:07:33.026Z,279.60
2023-02-17T20:09:34.728Z,332.60
2023-02-17T20:11:36.482Z,528.95
2023-02-17T20:13:45.677Z,76.95
2023-02-17T20:17:49.503Z,178.20
2023-02-17T20:19:51.129Z,93.38
2023-02-17T20:21:52.626Z,54.00
2023-02-17T20:23:55.124Z,59.55
2023-02-17T20:25:58.484Z,57.33
2023-02-17T20:28:00.149Z,35.67
2023-02-17T20:30:02.315Z,36.40
2023-02-17T20:32:04.493Z,41.50
2023-02-17T20:34:07.828Z,47.92
2023-02-17T20:36:10.132Z,71.30
2023-02-17T20:38:12.085Z,68.20
2023-02-17T20:40:13.911Z,66.97
2023-02-17T20:42:15.489Z,47.03
2023-02-17T20:44:18.129Z,50.15
2023-02-17T20:46:27.696Z,42.05
2023-02-17T20:48:29.435Z,47.92
2023-02-17T20:50:31.133Z,48.45
2023-02-17T20:52:32.694Z,56.83
2023-02-17T20:54:34.722Z,47.38
2023-02-17T20:56:41.713Z,56.47
2023-02-17T20:58:43.442Z,44.15
2023-02-17T21:00:45.181Z,65.60
2023-02-17T21:02:47.058Z,42.28
2023-02-17T21:04:49.363Z,55.65
2023-02-17T21:06:51.761Z,65.70
2023-02-17T21:08:57.526Z,60.10
2023-02-17T21:10:59.037Z,43.28
2023-02-17T21:13:01.061Z,50.28
2023-02-17T21:15:02.600Z,42.72
2023-02-17T21:17:04.226Z,35.72
2023-02-17T21:19:05.926Z,55.28
2023-02-17T21:21:07.476Z,38.90
2023-02-17T21:23:09.011Z,44.78
2023-02-17T21:25:10.579Z,46.22
2023-02-17T21:27:12.333Z,44.28
2023-02-17T21:29:13.998Z,48.40
2023-02-17T21:31:16.360Z,36.17
2023-02-17T21:33:18.128Z,36.15
2023-02-17T21:35:19.682Z,36.63
2023-02-17T21:37:21.198Z,34.28
2023-02-17T21:39:22.688Z,45.28
2023-02-17T21:41:26.478Z,36.40
2023-02-17T21:43:46.746Z,38.40
2023-02-17T21:45:48.339Z,32.28
2023-02-17T21:47:50.023Z,35.35
2023-02-17T21:49:53.940Z,37.15
2023-02-17T21:51:55.442Z,30.75
2023-02-17T21:53:57.882Z,36.60
2023-02-17T21:55:59.911Z,34.25
2023-02-17T21:58:01.418Z,36.45
2023-02-17T22:00:04.286Z,40.08
2023-02-17T22:02:05.793Z,40.80
2023-02-17T22:04:07.351Z,55.28
2023-02-17T22:06:29.868Z,85.95
2023-02-17T22:08:31.403Z,38.78
2023-02-17T22:10:37.508Z,32.88
2023-02-17T22:12:39.032Z,38.78
2023-02-17T22:14:40.523Z,29.35
2023-02-17T22:16:42.479Z,30.00
2023-02-17T22:18:44.088Z,24.70
2023-02-17T22:20:45.601Z,26.02
2023-02-17T22:22:47.135Z,26.70
2023-02-17T22:24:48.643Z,26.25
2023-02-17T22:26:50.260Z,22.92
2023-02-17T22:28:53.461Z,24.60
2023-02-17T22:30:55.032Z,26.02
2023-02-17T22:32:56.988Z,20.58
2023-02-17T22:34:58.719Z,25.30
2023-02-17T22:37:00.272Z,14.93
2023-02-17T22:39:04.333Z,47.55
2023-02-17T22:41:07.812Z,46.70
2023-02-17T22:43:09.358Z,40.22
2023-02-17T22:45:10.862Z,164.02
2023-02-17T22:47:12.387Z,127.10
2023-02-17T22:49:13.938Z,106.40
2023-02-17T22:51:18.287Z,92.78
2023-02-17T22:53:19.860Z,18.70
2023-02-17T22:55:21.339Z,21.75
2023-02-17T22:57:22.947Z,49.80
2023-02-17T22:59:24.650Z,64.38
2023-02-17T23:01:27.498Z,39.28
2023-02-17T23:03:29.142Z,17.23
2023-02-17T23:05:30.688Z,21.75
2023-02-17T23:07:32.184Z,17.13
2023-02-17T23:09:33.765Z,12.15
2023-02-17T23:12:04.357Z,21.17
2023-02-17T23:14:06.105Z,29.05
2023-02-17T23:16:08.788Z,31.88
2023-02-17T23:18:13.614Z,52.90
2023-02-17T23:20:15.139Z,69.43
2023-02-17T23:22:18.305Z,30.42
2023-02-17T23:24:20.658Z,29.42
2023-02-17T23:26:22.177Z,14.40
2023-02-17T23:28:25.332Z,136.10
2023-02-17T23:30:27.787Z,24.25
2023-02-17T23:32:29.512Z,21.33
2023-02-17T23:34:31.144Z,26.75
2023-02-17T23:36:32.832Z,55.15
2023-02-17T23:38:34.674Z,27.05
2023-02-17T23:40:37.133Z,22.23
2023-02-17T23:42:38.646Z,20.30
2023-02-17T23:44:40.187Z,22.65
2023-02-17T23:46:43.465Z,12.55
2023-02-17T23:48:45.064Z,13.38
2023-02-17T23:50:54.819Z,8.85
2023-02-17T23:52:56.312Z,10.60
2023-02-17T23:54:57.949Z,8.63
2023-02-17T23:56:59.485Z,6.45
2023-02-17T23:59:01.692Z,9.35
